sensor_id;sensor_type;location;lat;lon;timestamp;pressure;altitude;pressure_sealevel;temperature;humidity
44659;BME280;30378;50.186;8.644;2022-10-18T00:00:05;101252.47;;;15.71;100.00
44659;BME280;30378;50.186;8.644;2022-10-18T00:02:33;101255.56;;;15.70;100.00
44659;BME280;30378;50.186;8.644;2022-10-18T00:05:00;101259.97;;;15.71;100.00
44659;BME280;30378;50.186;8.644;2022-10-18T00:07:27;101274.88;;;15.75;100.00
44659;BME280;30378;50.186;8.644;2022-10-18T00:09:54;101264.38;;;15.72;100.00
44659;BME280;30378;50.186;8.644;2022-10-18T00:12:21;101270.25;;;15.70;100.00
44659;BME280;30378;50.186;8.644;2022-10-18T00:14:49;101272.19;;;15.70;100.00
44659;BME280;30378;50.186;8.644;2022-10-18T00:17:17;101260.06;;;15.65;100.00
44659;BME280;30378;50.186;8.644;2022-10-18T00:19:44;101258.75;;;15.63;100.00
44659;BME280;30378;50.186;8.644;2022-10-18T00:22:12;101257.09;;;15.62;100.00
44659;BME280;30378;50.186;8.644;2022-10-18T00:24:39;101261.72;;;15.66;100.00
44659;BME280;30378;50.186;8.644;2022-10-18T00:27:06;101269.56;;;15.78;100.00
44659;BME280;30378;50.186;8.644;2022-10-18T00:29:33;101277.75;;;15.83;100.00
44659;BME280;30378;50.186;8.644;2022-10-18T00:32:00;101273.16;;;15.79;100.00
44659;BME280;30378;50.186;8.644;2022-10-18T00:34:26;101268.75;;;15.78;100.00
44659;BME280;30378;50.186;8.644;2022-10-18T00:36:53;101276.94;;;15.83;100.00
44659;BME280;30378;50.186;8.644;2022-10-18T00:39:21;101270.47;;;15.88;100.00
44659;BME280;30378;50.186;8.644;2022-10-18T00:41:49;101278.25;;;15.85;100.00
44659;BME280;30378;50.186;8.644;2022-10-18T00:46:46;101294.38;;;15.83;100.00
44659;BME280;30378;50.186;8.644;2022-10-18T00:49:19;101294.72;;;15.82;100.00
44659;BME280;30378;50.186;8.644;2022-10-18T00:52:10;101285.38;;;15.78;100.00
44659;BME280;30378;50.186;8.644;2022-10-18T00:54:40;101283.72;;;15.77;100.00
44659;BME280;30378;50.186;8.644;2022-10-18T00:57:07;101285.97;;;15.75;100.00
44659;BME280;30378;50.186;8.644;2022-10-18T00:59:35;101286.53;;;15.72;100.00
44659;BME280;30378;50.186;8.644;2022-10-18T01:02:04;101285.88;;;15.80;100.00
44659;BME280;30378;50.186;8.644;2022-10-18T01:04:33;101288.03;;;15.83;100.00
44659;BME280;30378;50.186;8.644;2022-10-18T01:15:31;101282.78;;;15.81;100.00
44659;BME280;30378;50.186;8.644;2022-10-18T01:31:49;101297.38;;;15.73;100.00
44659;BME280;30378;50.186;8.644;2022-10-18T01:34:20;101288.22;;;15.73;100.00
44659;BME280;30378;50.186;8.644;2022-10-18T01:36:50;101288.50;;;15.71;100.00
44659;BME280;30378;50.186;8.644;2022-10-18T01:39:21;101283.78;;;15.72;100.00
44659;BME280;30378;50.186;8.644;2022-10-18T01:41:50;101293.34;;;15.79;100.00
44659;BME280;30378;50.186;8.644;2022-10-18T01:44:26;101295.00;;;15.80;100.00
44659;BME280;30378;50.186;8.644;2022-10-18T01:46:56;101287.41;;;15.86;100.00
44659;BME280;30378;50.186;8.644;2022-10-18T01:49:24;101292.25;;;15.94;100.00
44659;BME280;30378;50.186;8.644;2022-10-18T01:51:52;101288.94;;;15.92;100.00
44659;BME280;30378;50.186;8.644;2022-10-18T01:54:28;101292.13;;;15.85;100.00
44659;BME280;30378;50.186;8.644;2022-10-18T01:57:00;101297.78;;;15.80;100.00
44659;BME280;30378;50.186;8.644;2022-10-18T02:05:42;101297.88;;;15.75;100.00
44659;BME280;30378;50.186;8.644;2022-10-18T02:10:41;101294.28;;;15.75;100.00
44659;BME280;30378;50.186;8.644;2022-10-18T02:13:13;101299.84;;;15.75;100.00
44659;BME280;30378;50.186;8.644;2022-10-18T02:15:46;101309.47;;;15.77;100.00
44659;BME280;30378;50.186;8.644;2022-10-18T02:18:22;101349.41;;;15.76;100.00
44659;BME280;30378;50.186;8.644;2022-10-18T02:20:51;101349.00;;;15.83;100.00
44659;BME280;30378;50.186;8.644;2022-10-18T02:23:22;101341.50;;;15.83;100.00
44659;BME280;30378;50.186;8.644;2022-10-18T02:25:50;101337.91;;;15.83;100.00
44659;BME280;30378;50.186;8.644;2022-10-18T02:28:18;101327.47;;;15.80;100.00
44659;BME280;30378;50.186;8.644;2022-10-18T02:31:02;101324.06;;;15.83;100.00
44659;BME280;30378;50.186;8.644;2022-10-18T02:36:18;101332.66;;;15.81;100.00
44659;BME280;30378;50.186;8.644;2022-10-18T02:38:52;101377.84;;;15.82;100.00
44659;BME280;30378;50.186;8.644;2022-10-18T02:41:24;101389.97;;;15.86;100.00
44659;BME280;30378;50.186;8.644;2022-10-18T02:43:52;101412.66;;;15.88;100.00
44659;BME280;30378;50.186;8.644;2022-10-18T02:46:19;101400.72;;;15.88;100.00
44659;BME280;30378;50.186;8.644;2022-10-18T02:48:46;101401.88;;;15.86;100.00
44659;BME280;30378;50.186;8.644;2022-10-18T02:51:14;101399.84;;;15.92;100.00
44659;BME280;30378;50.186;8.644;2022-10-18T02:53:40;101392.13;;;15.89;100.00
44659;BME280;30378;50.186;8.644;2022-10-18T02:56:07;101394.88;;;15.89;100.00
44659;BME280;30378;50.186;8.644;2022-10-18T02:58:34;101389.97;;;15.86;100.00
44659;BME280;30378;50.186;8.644;2022-10-18T03:01:01;101386.78;;;15.79;100.00
44659;BME280;30378;50.186;8.644;2022-10-18T03:03:28;101386.25;;;15.77;100.00
44659;BME280;30378;50.186;8.644;2022-10-18T03:05:55;101380.50;;;15.73;100.00
44659;BME280;30378;50.186;8.644;2022-10-18T03:08:22;101374.94;;;15.73;100.00
44659;BME280;30378;50.186;8.644;2022-10-18T03:10:49;101384.38;;;15.72;100.00
44659;BME280;30378;50.186;8.644;2022-10-18T03:13:16;101385.22;;;15.73;100.00
44659;BME280;30378;50.186;8.644;2022-10-18T03:15:43;101389.06;;;15.72;100.00
44659;BME280;30378;50.186;8.644;2022-10-18T03:18:10;101393.53;;;15.73;100.00
44659;BME280;30378;50.186;8.644;2022-10-18T03:20:37;101399.59;;;15.75;100.00
44659;BME280;30378;50.186;8.644;2022-10-18T03:23:03;101396.22;;;15.78;100.00
44659;BME280;30378;50.186;8.644;2022-10-18T03:25:31;101390.06;;;15.81;100.00
44659;BME280;30378;50.186;8.644;2022-10-18T03:27:57;101408.34;;;15.82;100.00
44659;BME280;30378;50.186;8.644;2022-10-18T03:30:24;101442.72;;;15.81;100.00
44659;BME280;30378;50.186;8.644;2022-10-18T03:32:52;101477.53;;;15.87;100.00
44659;BME280;30378;50.186;8.644;2022-10-18T03:35:19;101502.69;;;15.91;100.00
44659;BME280;30378;50.186;8.644;2022-10-18T03:37:47;101514.59;;;15.91;100.00
44659;BME280;30378;50.186;8.644;2022-10-18T03:40:15;101498.06;;;15.86;100.00
44659;BME280;30378;50.186;8.644;2022-10-18T03:42:42;101506.91;;;15.88;100.00
44659;BME280;30378;50.186;8.644;2022-10-18T03:45:09;101504.34;;;15.92;100.00
44659;BME280;30378;50.186;8.644;2022-10-18T03:47:36;101492.41;;;15.91;100.00
44659;BME280;30378;50.186;8.644;2022-10-18T03:50:03;101479.19;;;15.88;100.00
44659;BME280;30378;50.186;8.644;2022-10-18T03:52:30;101467.25;;;15.88;100.00
44659;BME280;30378;50.186;8.644;2022-10-18T03:54:57;101465.00;;;15.76;100.00
44659;BME280;30378;50.186;8.644;2022-10-18T03:57:24;101458.31;;;15.77;100.00
44659;BME280;30378;50.186;8.644;2022-10-18T03:59:51;101453.06;;;15.75;100.00
44659;BME280;30378;50.186;8.644;2022-10-18T04:02:18;101459.50;;;15.71;100.00
44659;BME280;30378;50.186;8.644;2022-10-18T04:04:45;101448.81;;;15.64;100.00
44659;BME280;30378;50.186;8.644;2022-10-18T04:07:12;101455.69;;;15.66;100.00
44659;BME280;30378;50.186;8.644;2022-10-18T04:09:39;101451.78;;;15.67;100.00
44659;BME280;30378;50.186;8.644;2022-10-18T04:12:06;101445.19;;;15.63;100.00
44659;BME280;30378;50.186;8.644;2022-10-18T04:14:33;101449.09;;;15.62;100.00
44659;BME280;30378;50.186;8.644;2022-10-18T04:16:59;101444.09;;;15.64;100.00
44659;BME280;30378;50.186;8.644;2022-10-18T04:19:26;101436.38;;;15.61;100.00
44659;BME280;30378;50.186;8.644;2022-10-18T04:21:53;101434.81;;;15.55;100.00
44659;BME280;30378;50.186;8.644;2022-10-18T04:24:21;101441.28;;;15.51;100.00
44659;BME280;30378;50.186;8.644;2022-10-18T04:26:47;101444.22;;;15.40;100.00
44659;BME280;30378;50.186;8.644;2022-10-18T04:29:14;101445.03;;;15.41;100.00
44659;BME280;30378;50.186;8.644;2022-10-18T04:31:41;101449.53;;;15.37;100.00
44659;BME280;30378;50.186;8.644;2022-10-18T04:34:09;101476.69;;;15.35;100.00
44659;BME280;30378;50.186;8.644;2022-10-18T04:36:36;101488.38;;;15.32;100.00
44659;BME280;30378;50.186;8.644;2022-10-18T04:39:03;101493.91;;;15.32;100.00
44659;BME280;30378;50.186;8.644;2022-10-18T04:41:30;101485.59;;;15.32;100.00
44659;BME280;30378;50.186;8.644;2022-10-18T04:43:57;101477.06;;;15.28;100.00
44659;BME280;30378;50.186;8.644;2022-10-18T04:46:24;101472.94;;;15.25;100.00
44659;BME280;30378;50.186;8.644;2022-10-18T04:48:52;101472.66;;;15.27;100.00
44659;BME280;30378;50.186;8.644;2022-10-18T04:51:19;101465.69;;;15.30;100.00
44659;BME280;30378;50.186;8.644;2022-10-18T04:53:46;101471.00;;;15.26;100.00
44659;BME280;30378;50.186;8.644;2022-10-18T05:15:06;101474.22;;;14.95;100.00
44659;BME280;30378;50.186;8.644;2022-10-18T05:17:33;101467.41;;;14.87;100.00
44659;BME280;30378;50.186;8.644;2022-10-18T05:20:01;101474.72;;;14.78;100.00
44659;BME280;30378;50.186;8.644;2022-10-18T05:22:28;101472.56;;;14.75;100.00
44659;BME280;30378;50.186;8.644;2022-10-18T05:24:55;101465.38;;;14.74;100.00
44659;BME280;30378;50.186;8.644;2022-10-18T05:27:22;101468.13;;;14.74;100.00
44659;BME280;30378;50.186;8.644;2022-10-18T05:29:49;101468.13;;;14.74;100.00
44659;BME280;30378;50.186;8.644;2022-10-18T05:32:16;101464.25;;;14.75;100.00
44659;BME280;30378;50.186;8.644;2022-10-18T05:34:43;101464.53;;;14.74;100.00
44659;BME280;30378;50.186;8.644;2022-10-18T05:37:10;101459.59;;;14.71;100.00
44659;BME280;30378;50.186;8.644;2022-10-18T05:39:37;101449.44;;;14.66;100.00
44659;BME280;30378;50.186;8.644;2022-10-18T05:42:04;101445.66;;;14.57;100.00
44659;BME280;30378;50.186;8.644;2022-10-18T05:44:32;101454.22;;;14.55;100.00
44659;BME280;30378;50.186;8.644;2022-10-18T05:46:58;101458.63;;;14.61;100.00
44659;BME280;30378;50.186;8.644;2022-10-18T05:49:25;101455.63;;;14.58;100.00
44659;BME280;30378;50.186;8.644;2022-10-18T05:51:52;101458.38;;;14.58;100.00
44659;BME280;30378;50.186;8.644;2022-10-18T05:54:19;101459.72;;;14.60;100.00
44659;BME280;30378;50.186;8.644;2022-10-18T05:56:46;101453.00;;;14.66;100.00
44659;BME280;30378;50.186;8.644;2022-10-18T05:59:13;101450.84;;;14.63;100.00
44659;BME280;30378;50.186;8.644;2022-10-18T06:01:41;101469.91;;;14.65;100.00
44659;BME280;30378;50.186;8.644;2022-10-18T06:04:09;101477.66;;;14.63;100.00
44659;BME280;30378;50.186;8.644;2022-10-18T06:06:37;101490.63;;;14.67;100.00
44659;BME280;30378;50.186;8.644;2022-10-18T06:09:05;101488.16;;;14.66;100.00
44659;BME280;30378;50.186;8.644;2022-10-18T06:11:34;101495.31;;;14.67;100.00
44659;BME280;30378;50.186;8.644;2022-10-18T06:14:02;101510.25;;;14.71;100.00
44659;BME280;30378;50.186;8.644;2022-10-18T06:16:30;101531.06;;;14.63;100.00
44659;BME280;30378;50.186;8.644;2022-10-18T06:18:58;101548.97;;;14.71;100.00
44659;BME280;30378;50.186;8.644;2022-10-18T06:21:26;101548.31;;;14.79;100.00
44659;BME280;30378;50.186;8.644;2022-10-18T06:23:55;101520.03;;;14.82;100.00
44659;BME280;30378;50.186;8.644;2022-10-18T06:26:23;101522.75;;;14.87;100.00
44659;BME280;30378;50.186;8.644;2022-10-18T06:28:50;101533.34;;;14.80;100.00
44659;BME280;30378;50.186;8.644;2022-10-18T06:31:17;101531.94;;;14.83;100.00
44659;BME280;30378;50.186;8.644;2022-10-18T06:33:44;101528.28;;;14.87;100.00
44659;BME280;30378;50.186;8.644;2022-10-18T06:36:14;101529.59;;;14.95;100.00
44659;BME280;30378;50.186;8.644;2022-10-18T06:38:41;101527.09;;;14.94;100.00
44659;BME280;30378;50.186;8.644;2022-10-18T06:41:09;101523.19;;;14.95;100.00
44659;BME280;30378;50.186;8.644;2022-10-18T06:43:36;101531.22;;;14.96;100.00
44659;BME280;30378;50.186;8.644;2022-10-18T06:46:04;101534.78;;;14.97;100.00
44659;BME280;30378;50.186;8.644;2022-10-18T06:48:35;101547.47;;;15.03;100.00
44659;BME280;30378;50.186;8.644;2022-10-18T06:51:05;101558.03;;;15.01;100.00
44659;BME280;30378;50.186;8.644;2022-10-18T06:53:35;101563.84;;;14.99;100.00
44659;BME280;30378;50.186;8.644;2022-10-18T06:56:07;101565.19;;;15.02;100.00
44659;BME280;30378;50.186;8.644;2022-10-18T06:58:34;101576.78;;;15.04;100.00
44659;BME280;30378;50.186;8.644;2022-10-18T07:01:09;101578.47;;;15.05;100.00
44659;BME280;30378;50.186;8.644;2022-10-18T07:03:37;101584.00;;;15.05;100.00
44659;BME280;30378;50.186;8.644;2022-10-18T07:06:05;101591.09;;;15.11;100.00
44659;BME280;30378;50.186;8.644;2022-10-18T07:08:33;101597.16;;;15.13;100.00
44659;BME280;30378;50.186;8.644;2022-10-18T07:11:00;101602.72;;;15.13;100.00
44659;BME280;30378;50.186;8.644;2022-10-18T07:13:28;101605.72;;;15.17;100.00
44659;BME280;30378;50.186;8.644;2022-10-18T07:16:06;101595.38;;;15.22;100.00
44659;BME280;30378;50.186;8.644;2022-10-18T07:18:38;101591.50;;;15.23;100.00
44659;BME280;30378;50.186;8.644;2022-10-18T07:21:09;101576.47;;;15.30;100.00
44659;BME280;30378;50.186;8.644;2022-10-18T07:23:38;101582.47;;;15.37;100.00
44659;BME280;30378;50.186;8.644;2022-10-18T07:26:29;101575.97;;;15.46;100.00
44659;BME280;30378;50.186;8.644;2022-10-18T07:28:59;101589.38;;;15.58;100.00
44659;BME280;30378;50.186;8.644;2022-10-18T07:31:28;101598.63;;;15.67;100.00
44659;BME280;30378;50.186;8.644;2022-10-18T07:33:55;101599.16;;;15.70;100.00
44659;BME280;30378;50.186;8.644;2022-10-18T07:36:22;101600.28;;;15.69;100.00
44659;BME280;30378;50.186;8.644;2022-10-18T07:38:51;101601.91;;;15.75;100.00
44659;BME280;30378;50.186;8.644;2022-10-18T07:41:19;101605.94;;;15.82;100.00
44659;BME280;30378;50.186;8.644;2022-10-18T07:43:49;101608.63;;;15.88;100.00
44659;BME280;30378;50.186;8.644;2022-10-18T07:46:18;101602.78;;;15.89;100.00
44659;BME280;30378;50.186;8.644;2022-10-18T07:48:46;101614.91;;;15.93;100.00
44659;BME280;30378;50.186;8.644;2022-10-18T07:51:13;101620.69;;;15.97;100.00
44659;BME280;30378;50.186;8.644;2022-10-18T07:53:40;101610.41;;;15.97;100.00
44659;BME280;30378;50.186;8.644;2022-10-18T07:56:13;101606.75;;;16.02;100.00
44659;BME280;30378;50.186;8.644;2022-10-18T07:58:51;101597.22;;;16.08;100.00
44659;BME280;30378;50.186;8.644;2022-10-18T08:01:19;101597.34;;;16.17;100.00
44659;BME280;30378;50.186;8.644;2022-10-18T08:03:47;101605.19;;;16.29;100.00
44659;BME280;30378;50.186;8.644;2022-10-18T08:06:15;101603.06;;;16.39;100.00
44659;BME280;30378;50.186;8.644;2022-10-18T08:08:44;101595.25;;;16.41;100.00
44659;BME280;30378;50.186;8.644;2022-10-18T08:11:17;101594.69;;;16.72;100.00
44659;BME280;30378;50.186;8.644;2022-10-18T08:13:44;101585.13;;;16.78;100.00
44659;BME280;30378;50.186;8.644;2022-10-18T08:16:14;101591.13;;;16.99;100.00
44659;BME280;30378;50.186;8.644;2022-10-18T08:18:42;101576.13;;;16.87;100.00
44659;BME280;30378;50.186;8.644;2022-10-18T08:21:10;101570.88;;;16.99;100.00
44659;BME280;30378;50.186;8.644;2022-10-18T08:23:38;101566.34;;;17.17;100.00
44659;BME280;30378;50.186;8.644;2022-10-18T08:26:10;101547.28;;;17.38;100.00
44659;BME280;30378;50.186;8.644;2022-10-18T08:28:38;101525.41;;;17.45;100.00
44659;BME280;30378;50.186;8.644;2022-10-18T08:31:10;101524.66;;;17.53;100.00
44659;BME280;30378;50.186;8.644;2022-10-18T08:33:38;101508.97;;;17.35;100.00
44659;BME280;30378;50.186;8.644;2022-10-18T08:36:07;101509.09;;;17.30;100.00
44659;BME280;30378;50.186;8.644;2022-10-18T08:38:37;101518.84;;;17.41;100.00
44659;BME280;30378;50.186;8.644;2022-10-18T08:46:43;101489.44;;;17.40;100.00
44659;BME280;30378;50.186;8.644;2022-10-18T08:49:25;101485.88;;;17.48;100.00
44659;BME280;30378;50.186;8.644;2022-10-18T08:51:55;101477.41;;;17.53;100.00
44659;BME280;30378;50.186;8.644;2022-10-18T08:54:33;101460.50;;;17.63;100.00
44659;BME280;30378;50.186;8.644;2022-10-18T08:57:03;101456.66;;;17.73;100.00
44659;BME280;30378;50.186;8.644;2022-10-18T08:59:37;101451.09;;;18.04;100.00
44659;BME280;30378;50.186;8.644;2022-10-18T09:08:31;101285.94;;;19.01;100.00
44659;BME280;30378;50.186;8.644;2022-10-18T09:22:58;101285.56;;;19.76;100.00
44659;BME280;30378;50.186;8.644;2022-10-18T09:25:59;101261.50;;;20.23;100.00
44659;BME280;30378;50.186;8.644;2022-10-18T09:34:41;101247.00;;;19.40;100.00
44659;BME280;30378;50.186;8.644;2022-10-18T09:37:14;101251.59;;;19.36;100.00
44659;BME280;30378;50.186;8.644;2022-10-18T09:39:43;101257.03;;;19.32;100.00
44659;BME280;30378;50.186;8.644;2022-10-18T09:42:16;101258.03;;;19.19;100.00
44659;BME280;30378;50.186;8.644;2022-10-18T09:44:57;101270.16;;;19.23;100.00
44659;BME280;30378;50.186;8.644;2022-10-18T09:47:32;101250.09;;;18.82;100.00
44659;BME280;30378;50.186;8.644;2022-10-18T09:50:14;101263.81;;;19.05;100.00
44659;BME280;30378;50.186;8.644;2022-10-18T09:56:04;101254.31;;;19.06;100.00
44659;BME280;30378;50.186;8.644;2022-10-18T09:58:43;101259.91;;;18.54;100.00
44659;BME280;30378;50.186;8.644;2022-10-18T10:01:15;101265.97;;;18.73;100.00
44659;BME280;30378;50.186;8.644;2022-10-18T10:03:45;101264.16;;;18.95;100.00
44659;BME280;30378;50.186;8.644;2022-10-18T10:08:47;101259.09;;;18.79;100.00
44659;BME280;30378;50.186;8.644;2022-10-18T10:11:36;101282.34;;;18.83;100.00
44659;BME280;30378;50.186;8.644;2022-10-18T10:14:11;101267.09;;;18.63;100.00
44659;BME280;30378;50.186;8.644;2022-10-18T10:19:30;101277.09;;;18.56;100.00
44659;BME280;30378;50.186;8.644;2022-10-18T10:22:03;101286.09;;;18.61;100.00
44659;BME280;30378;50.186;8.644;2022-10-18T10:24:45;101289.69;;;18.62;100.00
44659;BME280;30378;50.186;8.644;2022-10-18T10:27:17;101298.22;;;18.39;100.00
44659;BME280;30378;50.186;8.644;2022-10-18T10:32:17;101294.44;;;18.35;100.00
44659;BME280;30378;50.186;8.644;2022-10-18T10:34:45;101296.25;;;18.49;100.00
44659;BME280;30378;50.186;8.644;2022-10-18T10:40:13;101322.13;;;18.40;100.00
44659;BME280;30378;50.186;8.644;2022-10-18T10:42:54;101334.72;;;18.38;100.00
44659;BME280;30378;50.186;8.644;2022-10-18T10:45:23;101344.88;;;18.42;100.00
44659;BME280;30378;50.186;8.644;2022-10-18T10:47:52;101327.38;;;18.51;100.00
44659;BME280;30378;50.186;8.644;2022-10-18T10:50:25;101321.47;;;18.70;100.00
44659;BME280;30378;50.186;8.644;2022-10-18T10:52:53;101322.50;;;19.00;100.00
44659;BME280;30378;50.186;8.644;2022-10-18T10:55:27;101318.19;;;19.11;100.00
44659;BME280;30378;50.186;8.644;2022-10-18T10:58:00;101310.63;;;19.29;100.00
44659;BME280;30378;50.186;8.644;2022-10-18T11:00:53;101320.72;;;19.60;100.00
44659;BME280;30378;50.186;8.644;2022-10-18T11:03:22;101300.34;;;19.77;100.00
44659;BME280;30378;50.186;8.644;2022-10-18T11:05:57;101298.16;;;19.83;100.00
44659;BME280;30378;50.186;8.644;2022-10-18T11:08:32;101290.16;;;20.11;100.00
44659;BME280;30378;50.186;8.644;2022-10-18T11:11:17;101292.34;;;20.26;100.00
44659;BME280;30378;50.186;8.644;2022-10-18T11:13:50;101278.28;;;20.65;100.00
44659;BME280;30378;50.186;8.644;2022-10-18T11:19:33;101252.25;;;20.73;100.00
44659;BME280;30378;50.186;8.644;2022-10-18T11:22:04;101244.72;;;21.19;100.00
44659;BME280;30378;50.186;8.644;2022-10-18T11:24:35;101251.88;;;21.41;100.00
44659;BME280;30378;50.186;8.644;2022-10-18T11:27:13;101244.09;;;21.47;100.00
44659;BME280;30378;50.186;8.644;2022-10-18T11:29:56;101245.38;;;21.62;100.00
44659;BME280;30378;50.186;8.644;2022-10-18T11:38:04;101257.44;;;20.62;100.00
44659;BME280;30378;50.186;8.644;2022-10-18T11:43:30;101256.47;;;20.58;100.00
44659;BME280;30378;50.186;8.644;2022-10-18T11:46:12;101260.16;;;20.50;100.00
44659;BME280;30378;50.186;8.644;2022-10-18T11:51:34;101245.75;;;20.18;100.00
44659;BME280;30378;50.186;8.644;2022-10-18T11:59:50;101247.69;;;21.72;100.00
44659;BME280;30378;50.186;8.644;2022-10-18T12:05:34;101247.19;;;23.48;100.00
44659;BME280;30378;50.186;8.644;2022-10-18T12:08:15;101245.34;;;22.64;100.00
44659;BME280;30378;50.186;8.644;2022-10-18T12:10:49;101240.88;;;23.83;100.00
44659;BME280;30378;50.186;8.644;2022-10-18T12:13:43;101249.84;;;22.68;100.00
44659;BME280;30378;50.186;8.644;2022-10-18T12:16:11;101225.50;;;22.28;100.00
44659;BME280;30378;50.186;8.644;2022-10-18T12:19:19;101239.16;;;21.31;100.00
44659;BME280;30378;50.186;8.644;2022-10-18T12:21:39;101240.38;;;21.55;100.00
44659;BME280;30378;50.186;8.644;2022-10-18T12:24:11;101230.19;;;22.12;100.00
44659;BME280;30378;50.186;8.644;2022-10-18T12:26:41;101232.06;;;22.08;100.00
44659;BME280;30378;50.186;8.644;2022-10-18T12:32:01;101216.25;;;22.68;100.00
44659;BME280;30378;50.186;8.644;2022-10-18T12:34:45;101223.91;;;21.78;100.00
44659;BME280;30378;50.186;8.644;2022-10-18T12:37:25;101225.50;;;20.72;100.00
44659;BME280;30378;50.186;8.644;2022-10-18T12:42:39;101230.78;;;20.44;100.00
44659;BME280;30378;50.186;8.644;2022-10-18T12:45:24;101232.56;;;20.06;100.00
44659;BME280;30378;50.186;8.644;2022-10-18T12:47:52;101235.75;;;19.96;100.00
44659;BME280;30378;50.186;8.644;2022-10-18T12:50:49;101234.50;;;19.46;100.00
44659;BME280;30378;50.186;8.644;2022-10-18T12:53:24;101243.19;;;19.45;100.00
44659;BME280;30378;50.186;8.644;2022-10-18T12:55:53;101245.06;;;19.32;100.00
44659;BME280;30378;50.186;8.644;2022-10-18T12:58:24;101239.34;;;19.28;100.00
44659;BME280;30378;50.186;8.644;2022-10-18T13:00:54;101242.06;;;19.37;100.00
44659;BME280;30378;50.186;8.644;2022-10-18T13:08:34;101231.63;;;19.25;100.00
44659;BME280;30378;50.186;8.644;2022-10-18T13:16:37;101236.44;;;19.16;100.00
44659;BME280;30378;50.186;8.644;2022-10-18T13:19:34;101241.25;;;19.45;100.00
44659;BME280;30378;50.186;8.644;2022-10-18T13:28:01;101235.16;;;19.52;100.00
44659;BME280;30378;50.186;8.644;2022-10-18T13:31:00;101233.00;;;19.57;100.00
44659;BME280;30378;50.186;8.644;2022-10-18T13:36:05;101233.53;;;19.80;100.00
44659;BME280;30378;50.186;8.644;2022-10-18T13:52:13;101207.16;;;21.53;100.00
44659;BME280;30378;50.186;8.644;2022-10-18T14:06:35;101230.19;;;21.99;100.00
44659;BME280;30378;50.186;8.644;2022-10-18T14:11:44;101234.56;;;21.27;100.00
44659;BME280;30378;50.186;8.644;2022-10-18T14:24:49;101228.44;;;21.95;100.00
44659;BME280;30378;50.186;8.644;2022-10-18T14:27:22;101230.03;;;22.21;100.00
44659;BME280;30378;50.186;8.644;2022-10-18T14:30:23;101229.69;;;22.34;100.00
44659;BME280;30378;50.186;8.644;2022-10-18T14:32:51;101220.47;;;22.22;100.00
44659;BME280;30378;50.186;8.644;2022-10-18T14:35:20;101236.69;;;22.04;100.00
44659;BME280;30378;50.186;8.644;2022-10-18T14:38:05;101226.88;;;22.22;100.00
44659;BME280;30378;50.186;8.644;2022-10-18T14:40:39;101235.91;;;22.28;100.00
44659;BME280;30378;50.186;8.644;2022-10-18T14:43:17;101244.91;;;21.72;100.00
44659;BME280;30378;50.186;8.644;2022-10-18T14:45:44;101242.75;;;21.19;100.00
44659;BME280;30378;50.186;8.644;2022-10-18T14:48:16;101239.75;;;21.37;100.00
44659;BME280;30378;50.186;8.644;2022-10-18T14:50:46;101242.13;;;21.14;100.00
44659;BME280;30378;50.186;8.644;2022-10-18T14:53:19;101249.97;;;20.87;100.00
44659;BME280;30378;50.186;8.644;2022-10-18T14:55:57;101246.13;;;20.79;100.00
44659;BME280;30378;50.186;8.644;2022-10-18T14:58:30;101241.38;;;20.59;100.00
44659;BME280;30378;50.186;8.644;2022-10-18T15:00:58;101246.75;;;20.64;100.00
44659;BME280;30378;50.186;8.644;2022-10-18T15:03:25;101247.06;;;20.41;100.00
44659;BME280;30378;50.186;8.644;2022-10-18T15:05:59;101244.22;;;20.29;100.00
44659;BME280;30378;50.186;8.644;2022-10-18T15:08:39;101239.66;;;20.25;100.00
44659;BME280;30378;50.186;8.644;2022-10-18T15:11:07;101246.38;;;20.03;100.00
44659;BME280;30378;50.186;8.644;2022-10-18T15:13:37;101255.00;;;19.89;100.00
44659;BME280;30378;50.186;8.644;2022-10-18T15:16:17;101254.53;;;19.87;100.00
44659;BME280;30378;50.186;8.644;2022-10-18T15:21:30;101258.56;;;19.59;100.00
44659;BME280;30378;50.186;8.644;2022-10-18T15:24:17;101261.19;;;19.56;100.00
44659;BME280;30378;50.186;8.644;2022-10-18T15:26:45;101267.34;;;19.32;100.00
44659;BME280;30378;50.186;8.644;2022-10-18T15:29:18;101255.03;;;19.33;100.00
44659;BME280;30378;50.186;8.644;2022-10-18T15:31:47;101254.75;;;19.26;100.00
44659;BME280;30378;50.186;8.644;2022-10-18T15:34:22;101258.91;;;19.02;100.00
44659;BME280;30378;50.186;8.644;2022-10-18T15:36:53;101264.84;;;18.92;100.00
44659;BME280;30378;50.186;8.644;2022-10-18T15:39:23;101267.94;;;18.90;100.00
44659;BME280;30378;50.186;8.644;2022-10-18T15:41:51;101267.78;;;18.87;100.00
44659;BME280;30378;50.186;8.644;2022-10-18T15:44:20;101267.75;;;18.69;100.00
44659;BME280;30378;50.186;8.644;2022-10-18T15:46:48;101270.22;;;18.71;100.00
44659;BME280;30378;50.186;8.644;2022-10-18T15:52:32;101271.53;;;18.65;100.00
44659;BME280;30378;50.186;8.644;2022-10-18T15:58:25;101268.09;;;18.41;100.00
44659;BME280;30378;50.186;8.644;2022-10-18T16:00:59;101270.84;;;18.24;100.00
44659;BME280;30378;50.186;8.644;2022-10-18T16:03:27;101272.66;;;18.11;100.00
44659;BME280;30378;50.186;8.644;2022-10-18T16:05:59;101268.03;;;17.89;100.00
44659;BME280;30378;50.186;8.644;2022-10-18T16:08:28;101265.97;;;17.72;100.00
44659;BME280;30378;50.186;8.644;2022-10-18T16:11:02;101274.72;;;17.57;100.00
44659;BME280;30378;50.186;8.644;2022-10-18T16:13:29;101280.88;;;17.45;100.00